EDT,Max TemperatureF,Mean TemperatureF,Min TemperatureF,Max Dew PointF,MeanDew PointF,Min DewpointF,Max Humidity, Mean Humidity, Min Humidity, Max Sea Level PressureIn, Mean Sea Level PressureIn, Min Sea Level PressureIn, Max VisibilityMiles, Mean VisibilityMiles, Min VisibilityMiles, Max Wind SpeedMPH, Mean Wind SpeedMPH, Max Gust SpeedMPH,PrecipitationIn, CloudCover, Events, WindDirDegrees
2013-6-1,83,72,61,65,62,57,100,72,43,29.79,29.69,29.65,10,10,10,17,6,25,T,3,,188
2013-6-2,61,51,41,59,49,37,100,82,64,30.01,29.75,29.57,10,9,1,18,8,30,0.51,7,Rain,303
2013-6-3,64,51,37,38,35,29,92,61,29,30.12,30.04,30.01,10,10,10,22,9,30,0.00,1,,296
2013-6-4,68,53,37,41,36,32,92,60,28,30.23,30.20,30.14,10,10,10,12,4,18,0.00,1,,313
2013-6-5,64,57,50,47,43,39,86,69,51,30.26,30.20,30.14,10,10,10,13,4,16,T,7,,88
2013-6-6,65,56,46,44,40,35,77,57,36,30.13,30.04,29.99,10,10,10,15,6,21,0.00,3,,75
2013-6-7,67,53,39,49,45,39,96,74,52,29.99,29.96,29.93,10,10,10,14,4,20,0.00,3,,38
2013-6-8,70,57,44,53,50,42,100,76,51,30.09,30.00,29.94,10,10,10,10,2,12,T,4,Rain-Thunderstorm,158
2013-6-9,73,58,42,53,49,41,100,71,41,30.17,30.12,30.06,10,9,1,15,6,21,0.00,0,,104
2013-6-10,58,56,54,56,53,47,100,84,67,30.04,29.89,29.83,10,5,1,13,4,16,0.05,8,Rain,72
2013-6-11,72,63,54,63,58,55,100,87,73,29.89,29.85,29.82,10,7,0,14,4,17,T,7,Fog,27
2013-6-12,78,64,50,61,55,50,100,73,46,29.94,29.87,29.74,10,5,0,14,3,16,0.00,6,Fog,104
2013-6-13,76,64,52,57,53,49,100,73,46,29.99,29.83,29.72,10,10,10,22,10,28,0.00,1,,349
2013-6-14,72,59,45,50,41,31,77,50,22,30.13,30.07,30.00,10,10,10,14,6,18,0.00,0,,1
2013-6-15,74,60,45,57,46,38,86,58,29,30.06,29.98,29.84,10,10,10,12,3,15,0.00,2,,120
2013-6-16,66,62,57,63,59,56,100,84,68,29.84,29.78,29.74,10,5,1,7,3,,0.65,8,Rain-Thunderstorm,290
2013-6-17,,,52,,,,,,,29.88,29.85,29.83,,,,71,66,,0.00,,,-1
2013-6-18,66,57,46,46,40,34,90,51,22,30.12,30.11,30.10,10,10,10,8,4,,0.00,0,,30
2013-6-19,71,55,39,48,42,39,100,67,33,30.21,30.16,30.12,10,10,10,20,5,23,0.00,0,,144
2013-6-20,80,61,42,56,48,40,96,65,33,30.19,30.17,30.14,10,10,10,15,4,18,0.00,0,,165
2013-6-21,80,66,52,63,57,50,93,68,42,30.18,30.10,29.98,10,10,10,14,6,21,0.01,1,Rain,138
2013-6-22,77,68,58,63,61,58,100,82,64,30.07,30.03,29.96,10,9,5,12,5,15,0.00,5,,336
2013-6-23,89,75,60,68,62,59,100,72,43,30.07,29.99,29.90,10,5,0,15,6,24,0.00,4,Fog,161
2013-6-24,89,78,66,69,66,62,93,70,46,29.96,29.91,29.87,10,10,9,13,6,18,T,2,Thunderstorm,230
2013-6-25,84,74,63,69,66,63,93,74,55,29.87,29.84,29.80,10,10,2,12,3,17,0.06,4,Rain,262
2013-6-26,88,73,57,67,63,57,100,70,40,29.83,29.81,29.78,10,10,2,15,4,21,T,0,,104
2013-6-27,78,69,60,66,63,60,100,84,68,29.77,29.73,29.67,10,10,7,14,2,16,0.09,5,Rain-Thunderstorm,122
2013-6-28,69,66,62,64,63,61,100,94,87,29.66,29.62,29.60,10,8,2,13,5,15,0.63,8,Rain-Thunderstorm,25
2013-6-29,76,68,59,63,58,53,97,75,53,29.78,29.67,29.61,10,10,6,15,6,18,0.03,5,Rain,357
2013-6-30,76,65,54,58,45,35,80,52,23,30.04,29.93,29.78,10,10,9,14,7,18,0.00,1,,10